sensor_id;sensor_type;location;lat;lon;timestamp;temperature;humidity
29363;DHT22;16349;53.672;10.014;2024-01-07T00:02:19;-1.00;99.90
29363;DHT22;16349;53.672;10.014;2024-01-07T00:04:47;-1.10;99.90
29363;DHT22;16349;53.672;10.014;2024-01-07T00:07:14;-1.10;99.90
29363;DHT22;16349;53.672;10.014;2024-01-07T00:09:40;-1.10;99.90
29363;DHT22;16349;53.672;10.014;2024-01-07T00:12:07;-1.10;99.90
29363;DHT22;16349;53.672;10.014;2024-01-07T00:14:34;-1.20;99.90
29363;DHT22;16349;53.672;10.014;2024-01-07T00:17:01;-1.20;99.90
29363;DHT22;16349;53.672;10.014;2024-01-07T00:19:28;-1.20;99.90
29363;DHT22;16349;53.672;10.014;2024-01-07T00:21:58;-1.20;99.90
29363;DHT22;16349;53.672;10.014;2024-01-07T00:24:25;-1.20;99.90
29363;DHT22;16349;53.672;10.014;2024-01-07T00:26:54;-1.20;99.90
29363;DHT22;16349;53.672;10.014;2024-01-07T00:29:21;-1.30;99.90
29363;DHT22;16349;53.672;10.014;2024-01-07T00:31:48;-1.30;99.90
29363;DHT22;16349;53.672;10.014;2024-01-07T00:34:15;-1.30;99.90
29363;DHT22;16349;53.672;10.014;2024-01-07T00:36:41;-1.30;99.90
29363;DHT22;16349;53.672;10.014;2024-01-07T00:39:10;-1.30;99.90
29363;DHT22;16349;53.672;10.014;2024-01-07T00:41:37;-1.30;99.90
29363;DHT22;16349;53.672;10.014;2024-01-07T00:44:04;-1.30;99.90
29363;DHT22;16349;53.672;10.014;2024-01-07T00:46:31;-1.30;99.90
29363;DHT22;16349;53.672;10.014;2024-01-07T00:48:57;-1.30;99.90
29363;DHT22;16349;53.672;10.014;2024-01-07T00:51:24;-1.30;99.90
29363;DHT22;16349;53.672;10.014;2024-01-07T00:53:51;-1.30;99.90
29363;DHT22;16349;53.672;10.014;2024-01-07T00:56:19;-1.30;99.90
29363;DHT22;16349;53.672;10.014;2024-01-07T00:58:46;-1.30;99.90
29363;DHT22;16349;53.672;10.014;2024-01-07T01:01:13;-1.30;99.90
29363;DHT22;16349;53.672;10.014;2024-01-07T01:03:40;-1.30;99.90
29363;DHT22;16349;53.672;10.014;2024-01-07T01:06:07;-1.30;99.90
29363;DHT22;16349;53.672;10.014;2024-01-07T01:08:34;-1.30;99.90
29363;DHT22;16349;53.672;10.014;2024-01-07T01:11:01;-1.30;99.90
29363;DHT22;16349;53.672;10.014;2024-01-07T01:13:29;-1.30;99.90
29363;DHT22;16349;53.672;10.014;2024-01-07T01:15:56;-1.30;99.90
29363;DHT22;16349;53.672;10.014;2024-01-07T01:18:23;-1.30;99.90
29363;DHT22;16349;53.672;10.014;2024-01-07T01:20:50;-1.30;99.90
29363;DHT22;16349;53.672;10.014;2024-01-07T01:23:18;-1.30;99.90
29363;DHT22;16349;53.672;10.014;2024-01-07T01:25:44;-1.40;99.90
29363;DHT22;16349;53.672;10.014;2024-01-07T01:28:11;-1.40;99.90
29363;DHT22;16349;53.672;10.014;2024-01-07T01:30:39;-1.40;99.90
29363;DHT22;16349;53.672;10.014;2024-01-07T01:33:06;-1.40;99.90
29363;DHT22;16349;53.672;10.014;2024-01-07T01:35:33;-1.40;99.90
29363;DHT22;16349;53.672;10.014;2024-01-07T01:38:00;-1.40;99.90
29363;DHT22;16349;53.672;10.014;2024-01-07T01:40:27;-1.30;99.90
29363;DHT22;16349;53.672;10.014;2024-01-07T01:42:54;-1.30;99.90
29363;DHT22;16349;53.672;10.014;2024-01-07T01:45:21;-1.30;99.90
29363;DHT22;16349;53.672;10.014;2024-01-07T01:47:49;-1.30;99.90
29363;DHT22;16349;53.672;10.014;2024-01-07T01:50:16;-1.30;99.90
29363;DHT22;16349;53.672;10.014;2024-01-07T01:52:44;-1.30;99.90
29363;DHT22;16349;53.672;10.014;2024-01-07T01:55:11;-1.30;99.90
29363;DHT22;16349;53.672;10.014;2024-01-07T01:57:39;-1.20;99.90
29363;DHT22;16349;53.672;10.014;2024-01-07T02:00:07;-1.20;99.90
29363;DHT22;16349;53.672;10.014;2024-01-07T02:02:34;-1.20;99.90
29363;DHT22;16349;53.672;10.014;2024-01-07T02:05:03;-1.10;99.90
29363;DHT22;16349;53.672;10.014;2024-01-07T02:07:30;-1.10;99.90
29363;DHT22;16349;53.672;10.014;2024-01-07T02:09:59;-1.10;99.90
29363;DHT22;16349;53.672;10.014;2024-01-07T02:12:26;-1.00;99.90
29363;DHT22;16349;53.672;10.014;2024-01-07T02:14:53;-1.00;99.90
29363;DHT22;16349;53.672;10.014;2024-01-07T02:17:20;-1.00;99.90
29363;DHT22;16349;53.672;10.014;2024-01-07T02:19:47;-0.90;99.90
29363;DHT22;16349;53.672;10.014;2024-01-07T02:22:15;-0.90;99.90
29363;DHT22;16349;53.672;10.014;2024-01-07T02:24:43;-0.90;99.90
29363;DHT22;16349;53.672;10.014;2024-01-07T02:27:10;-0.90;99.90
29363;DHT22;16349;53.672;10.014;2024-01-07T02:29:37;-0.80;99.90
29363;DHT22;16349;53.672;10.014;2024-01-07T02:32:05;-0.80;99.90
29363;DHT22;16349;53.672;10.014;2024-01-07T02:34:32;-0.80;99.90
29363;DHT22;16349;53.672;10.014;2024-01-07T02:36:59;-0.80;99.90
29363;DHT22;16349;53.672;10.014;2024-01-07T02:39:26;-0.80;99.90
29363;DHT22;16349;53.672;10.014;2024-01-07T02:41:54;-0.70;99.90
29363;DHT22;16349;53.672;10.014;2024-01-07T02:44:20;-0.70;99.90
29363;DHT22;16349;53.672;10.014;2024-01-07T02:46:47;-0.80;99.90
29363;DHT22;16349;53.672;10.014;2024-01-07T02:49:14;-0.70;99.90
29363;DHT22;16349;53.672;10.014;2024-01-07T02:51:41;-0.70;99.90
29363;DHT22;16349;53.672;10.014;2024-01-07T02:54:08;-0.70;99.90
29363;DHT22;16349;53.672;10.014;2024-01-07T02:56:35;-0.70;99.90
29363;DHT22;16349;53.672;10.014;2024-01-07T02:59:03;-0.70;99.90
29363;DHT22;16349;53.672;10.014;2024-01-07T03:01:30;-0.60;99.90
29363;DHT22;16349;53.672;10.014;2024-01-07T03:03:57;-0.60;99.90
29363;DHT22;16349;53.672;10.014;2024-01-07T03:06:26;-0.60;99.90
29363;DHT22;16349;53.672;10.014;2024-01-07T03:08:53;-0.60;99.90
29363;DHT22;16349;53.672;10.014;2024-01-07T03:11:20;-0.60;99.90
29363;DHT22;16349;53.672;10.014;2024-01-07T03:13:47;-0.60;99.90
29363;DHT22;16349;53.672;10.014;2024-01-07T03:16:20;-0.60;99.90
29363;DHT22;16349;53.672;10.014;2024-01-07T03:18:47;-0.60;99.90
29363;DHT22;16349;53.672;10.014;2024-01-07T03:21:18;-0.60;99.90
29363;DHT22;16349;53.672;10.014;2024-01-07T03:23:45;-0.50;99.90
29363;DHT22;16349;53.672;10.014;2024-01-07T03:26:12;-0.50;99.90
29363;DHT22;16349;53.672;10.014;2024-01-07T03:28:39;-0.50;99.90
29363;DHT22;16349;53.672;10.014;2024-01-07T03:31:08;-0.50;99.90
29363;DHT22;16349;53.672;10.014;2024-01-07T03:33:37;-0.50;99.90
29363;DHT22;16349;53.672;10.014;2024-01-07T03:36:07;-0.40;99.90
29363;DHT22;16349;53.672;10.014;2024-01-07T03:38:35;-0.40;99.90
29363;DHT22;16349;53.672;10.014;2024-01-07T03:41:02;-0.40;99.90
29363;DHT22;16349;53.672;10.014;2024-01-07T03:43:29;-0.40;99.90
29363;DHT22;16349;53.672;10.014;2024-01-07T03:45:55;-0.40;99.90
29363;DHT22;16349;53.672;10.014;2024-01-07T03:48:22;-0.30;99.90
29363;DHT22;16349;53.672;10.014;2024-01-07T03:50:51;-0.30;99.90
29363;DHT22;16349;53.672;10.014;2024-01-07T03:53:18;-0.30;99.90
29363;DHT22;16349;53.672;10.014;2024-01-07T03:55:45;-0.30;99.90
29363;DHT22;16349;53.672;10.014;2024-01-07T03:58:12;-0.30;99.90
29363;DHT22;16349;53.672;10.014;2024-01-07T04:00:38;-0.30;99.90
29363;DHT22;16349;53.672;10.014;2024-01-07T04:03:05;-0.30;99.90
29363;DHT22;16349;53.672;10.014;2024-01-07T04:05:32;-0.20;99.90
29363;DHT22;16349;53.672;10.014;2024-01-07T04:08:01;-0.20;99.90
29363;DHT22;16349;53.672;10.014;2024-01-07T04:10:27;-0.20;99.90
29363;DHT22;16349;53.672;10.014;2024-01-07T04:12:54;-0.20;99.90
29363;DHT22;16349;53.672;10.014;2024-01-07T04:15:21;-0.20;99.90
29363;DHT22;16349;53.672;10.014;2024-01-07T04:17:48;-0.20;99.90
29363;DHT22;16349;53.672;10.014;2024-01-07T04:20:15;-0.20;99.90
29363;DHT22;16349;53.672;10.014;2024-01-07T04:22:42;-0.20;99.90
29363;DHT22;16349;53.672;10.014;2024-01-07T04:25:10;-0.20;99.90
29363;DHT22;16349;53.672;10.014;2024-01-07T04:27:37;-0.20;99.90
29363;DHT22;16349;53.672;10.014;2024-01-07T04:30:05;-0.20;99.90
29363;DHT22;16349;53.672;10.014;2024-01-07T04:32:32;-0.20;99.90
29363;DHT22;16349;53.672;10.014;2024-01-07T04:34:59;-0.20;99.90
29363;DHT22;16349;53.672;10.014;2024-01-07T04:37:26;-0.20;99.90
29363;DHT22;16349;53.672;10.014;2024-01-07T04:39:53;-0.20;99.90
29363;DHT22;16349;53.672;10.014;2024-01-07T04:42:21;-0.20;99.90
29363;DHT22;16349;53.672;10.014;2024-01-07T04:44:48;-0.20;99.90
29363;DHT22;16349;53.672;10.014;2024-01-07T04:47:25;-0.20;99.90
29363;DHT22;16349;53.672;10.014;2024-01-07T04:49:53;-0.20;99.90
29363;DHT22;16349;53.672;10.014;2024-01-07T04:52:20;-0.20;99.90
29363;DHT22;16349;53.672;10.014;2024-01-07T04:54:47;-0.20;99.90
29363;DHT22;16349;53.672;10.014;2024-01-07T04:57:14;-0.20;99.90
29363;DHT22;16349;53.672;10.014;2024-01-07T04:59:42;-0.20;99.90
29363;DHT22;16349;53.672;10.014;2024-01-07T05:02:10;-0.20;99.90
29363;DHT22;16349;53.672;10.014;2024-01-07T05:04:37;-0.20;99.90
29363;DHT22;16349;53.672;10.014;2024-01-07T05:07:04;-0.10;99.90
29363;DHT22;16349;53.672;10.014;2024-01-07T05:09:32;-0.10;99.90
29363;DHT22;16349;53.672;10.014;2024-01-07T05:11:59;-0.10;99.90
29363;DHT22;16349;53.672;10.014;2024-01-07T05:14:26;-0.10;99.90
29363;DHT22;16349;53.672;10.014;2024-01-07T05:16:54;-0.20;99.90
29363;DHT22;16349;53.672;10.014;2024-01-07T05:19:21;-0.10;99.90
29363;DHT22;16349;53.672;10.014;2024-01-07T05:21:49;-0.20;99.90
29363;DHT22;16349;53.672;10.014;2024-01-07T05:24:15;-0.10;99.90
29363;DHT22;16349;53.672;10.014;2024-01-07T05:26:43;-0.10;99.90
29363;DHT22;16349;53.672;10.014;2024-01-07T05:29:11;-0.10;99.90
29363;DHT22;16349;53.672;10.014;2024-01-07T05:31:38;-0.10;99.90
29363;DHT22;16349;53.672;10.014;2024-01-07T05:34:06;-0.10;99.90
29363;DHT22;16349;53.672;10.014;2024-01-07T05:36:33;-0.20;99.90
29363;DHT22;16349;53.672;10.014;2024-01-07T05:39:00;-0.20;99.90
29363;DHT22;16349;53.672;10.014;2024-01-07T05:41:26;-0.10;99.90
29363;DHT22;16349;53.672;10.014;2024-01-07T05:43:53;-0.20;99.90
29363;DHT22;16349;53.672;10.014;2024-01-07T05:46:20;-0.20;99.90
29363;DHT22;16349;53.672;10.014;2024-01-07T05:48:48;-0.20;99.90
29363;DHT22;16349;53.672;10.014;2024-01-07T05:51:16;-0.10;99.90
29363;DHT22;16349;53.672;10.014;2024-01-07T05:53:44;-0.20;99.90
29363;DHT22;16349;53.672;10.014;2024-01-07T05:56:11;-0.20;99.90
29363;DHT22;16349;53.672;10.014;2024-01-07T05:58:38;-0.20;99.90
29363;DHT22;16349;53.672;10.014;2024-01-07T06:01:07;-0.20;99.90
29363;DHT22;16349;53.672;10.014;2024-01-07T06:03:34;-0.20;99.90
29363;DHT22;16349;53.672;10.014;2024-01-07T06:06:01;-0.20;99.90
29363;DHT22;16349;53.672;10.014;2024-01-07T06:08:29;-0.20;99.90
29363;DHT22;16349;53.672;10.014;2024-01-07T06:10:56;-0.20;99.90
29363;DHT22;16349;53.672;10.014;2024-01-07T06:13:23;-0.20;99.90
29363;DHT22;16349;53.672;10.014;2024-01-07T06:15:50;-0.20;99.90
29363;DHT22;16349;53.672;10.014;2024-01-07T06:18:17;-0.20;99.90
29363;DHT22;16349;53.672;10.014;2024-01-07T06:20:44;-0.20;99.90
29363;DHT22;16349;53.672;10.014;2024-01-07T06:23:11;-0.20;99.90
29363;DHT22;16349;53.672;10.014;2024-01-07T06:25:39;-0.20;99.90
29363;DHT22;16349;53.672;10.014;2024-01-07T06:28:07;-0.20;99.90
29363;DHT22;16349;53.672;10.014;2024-01-07T06:30:34;-0.20;99.90
29363;DHT22;16349;53.672;10.014;2024-01-07T06:33:01;-0.20;99.90
29363;DHT22;16349;53.672;10.014;2024-01-07T06:35:28;-0.20;99.90
29363;DHT22;16349;53.672;10.014;2024-01-07T06:37:56;-0.20;99.90
29363;DHT22;16349;53.672;10.014;2024-01-07T06:40:23;-0.20;99.90
29363;DHT22;16349;53.672;10.014;2024-01-07T06:42:52;-0.20;99.90
29363;DHT22;16349;53.672;10.014;2024-01-07T06:45:18;-0.20;99.90
29363;DHT22;16349;53.672;10.014;2024-01-07T06:47:45;-0.10;99.90
29363;DHT22;16349;53.672;10.014;2024-01-07T06:50:12;-0.20;99.90
29363;DHT22;16349;53.672;10.014;2024-01-07T06:52:39;-0.20;99.90
29363;DHT22;16349;53.672;10.014;2024-01-07T06:55:07;-0.20;99.90
29363;DHT22;16349;53.672;10.014;2024-01-07T06:57:34;-0.20;99.90
29363;DHT22;16349;53.672;10.014;2024-01-07T07:00:02;-0.20;99.90
29363;DHT22;16349;53.672;10.014;2024-01-07T07:02:29;-0.20;99.90
29363;DHT22;16349;53.672;10.014;2024-01-07T07:04:56;-0.20;99.90
29363;DHT22;16349;53.672;10.014;2024-01-07T07:07:22;-0.20;99.90
29363;DHT22;16349;53.672;10.014;2024-01-07T07:09:49;-0.20;99.90
29363;DHT22;16349;53.672;10.014;2024-01-07T07:12:17;-0.20;99.90
29363;DHT22;16349;53.672;10.014;2024-01-07T07:14:44;-0.30;99.90
29363;DHT22;16349;53.672;10.014;2024-01-07T07:17:13;-0.30;99.90
29363;DHT22;16349;53.672;10.014;2024-01-07T07:19:40;-0.30;99.90
29363;DHT22;16349;53.672;10.014;2024-01-07T07:22:08;-0.30;99.90
29363;DHT22;16349;53.672;10.014;2024-01-07T07:24:35;-0.40;99.90
29363;DHT22;16349;53.672;10.014;2024-01-07T07:27:01;-0.40;99.90
29363;DHT22;16349;53.672;10.014;2024-01-07T07:29:29;-0.40;99.90
29363;DHT22;16349;53.672;10.014;2024-01-07T07:31:56;-0.40;99.90
29363;DHT22;16349;53.672;10.014;2024-01-07T07:34:24;-0.50;99.90
29363;DHT22;16349;53.672;10.014;2024-01-07T07:36:50;-0.50;99.90
29363;DHT22;16349;53.672;10.014;2024-01-07T07:39:17;-0.60;99.90
29363;DHT22;16349;53.672;10.014;2024-01-07T07:41:44;-0.60;99.90
29363;DHT22;16349;53.672;10.014;2024-01-07T07:44:11;-0.70;99.90
29363;DHT22;16349;53.672;10.014;2024-01-07T07:46:38;-0.70;99.90
29363;DHT22;16349;53.672;10.014;2024-01-07T07:49:05;-0.70;99.90
29363;DHT22;16349;53.672;10.014;2024-01-07T07:51:33;-0.70;99.90
29363;DHT22;16349;53.672;10.014;2024-01-07T07:53:59;-0.80;99.90
29363;DHT22;16349;53.672;10.014;2024-01-07T07:56:26;-0.80;99.90
29363;DHT22;16349;53.672;10.014;2024-01-07T07:58:54;-0.80;99.90
29363;DHT22;16349;53.672;10.014;2024-01-07T08:01:21;-0.90;99.90
29363;DHT22;16349;53.672;10.014;2024-01-07T08:03:48;-0.90;99.90
29363;DHT22;16349;53.672;10.014;2024-01-07T08:06:15;-0.90;99.90
29363;DHT22;16349;53.672;10.014;2024-01-07T08:08:43;-0.90;99.90
29363;DHT22;16349;53.672;10.014;2024-01-07T08:11:10;-1.00;99.90
29363;DHT22;16349;53.672;10.014;2024-01-07T08:13:38;-1.00;99.90
29363;DHT22;16349;53.672;10.014;2024-01-07T08:16:05;-1.00;99.90
29363;DHT22;16349;53.672;10.014;2024-01-07T08:18:32;-1.00;99.90
29363;DHT22;16349;53.672;10.014;2024-01-07T08:20:59;-1.00;99.90
29363;DHT22;16349;53.672;10.014;2024-01-07T08:23:26;-1.00;99.90
29363;DHT22;16349;53.672;10.014;2024-01-07T08:25:54;-1.00;99.90
29363;DHT22;16349;53.672;10.014;2024-01-07T08:28:21;-1.00;99.90
29363;DHT22;16349;53.672;10.014;2024-01-07T08:30:48;-1.00;99.90
29363;DHT22;16349;53.672;10.014;2024-01-07T08:33:17;-1.10;99.90
29363;DHT22;16349;53.672;10.014;2024-01-07T08:35:44;-1.10;99.90
29363;DHT22;16349;53.672;10.014;2024-01-07T08:38:11;-1.20;99.90
29363;DHT22;16349;53.672;10.014;2024-01-07T08:40:38;-1.20;99.90
29363;DHT22;16349;53.672;10.014;2024-01-07T08:43:06;-1.20;99.90
29363;DHT22;16349;53.672;10.014;2024-01-07T08:45:33;-1.30;99.90
29363;DHT22;16349;53.672;10.014;2024-01-07T08:48:00;-1.30;99.90
29363;DHT22;16349;53.672;10.014;2024-01-07T08:50:27;-1.30;99.90
29363;DHT22;16349;53.672;10.014;2024-01-07T08:52:55;-1.30;99.90
29363;DHT22;16349;53.672;10.014;2024-01-07T08:55:22;-1.40;99.90
29363;DHT22;16349;53.672;10.014;2024-01-07T08:57:49;-1.40;99.90
29363;DHT22;16349;53.672;10.014;2024-01-07T09:00:19;-1.40;99.90
29363;DHT22;16349;53.672;10.014;2024-01-07T09:02:51;-1.40;99.90
29363;DHT22;16349;53.672;10.014;2024-01-07T09:05:18;-1.40;99.90
29363;DHT22;16349;53.672;10.014;2024-01-07T09:07:44;-1.40;99.90
29363;DHT22;16349;53.672;10.014;2024-01-07T09:10:11;-1.50;99.90
29363;DHT22;16349;53.672;10.014;2024-01-07T09:12:39;-1.50;99.90
29363;DHT22;16349;53.672;10.014;2024-01-07T09:15:06;-1.50;99.90
29363;DHT22;16349;53.672;10.014;2024-01-07T09:17:36;-1.50;99.90
29363;DHT22;16349;53.672;10.014;2024-01-07T09:20:04;-1.50;99.90
29363;DHT22;16349;53.672;10.014;2024-01-07T09:22:33;-1.50;99.90
29363;DHT22;16349;53.672;10.014;2024-01-07T09:25:01;-1.30;99.90
29363;DHT22;16349;53.672;10.014;2024-01-07T09:27:28;-1.20;99.90
29363;DHT22;16349;53.672;10.014;2024-01-07T09:29:55;-1.30;99.90
29363;DHT22;16349;53.672;10.014;2024-01-07T09:32:22;-1.30;99.90
29363;DHT22;16349;53.672;10.014;2024-01-07T09:34:51;-1.30;99.90
29363;DHT22;16349;53.672;10.014;2024-01-07T09:37:19;-1.30;99.90
29363;DHT22;16349;53.672;10.014;2024-01-07T09:39:46;-1.30;99.90
29363;DHT22;16349;53.672;10.014;2024-01-07T09:42:14;-1.30;99.90
29363;DHT22;16349;53.672;10.014;2024-01-07T09:44:42;-1.20;99.90
29363;DHT22;16349;53.672;10.014;2024-01-07T09:47:11;-1.30;99.90
29363;DHT22;16349;53.672;10.014;2024-01-07T09:49:38;-1.20;99.90
29363;DHT22;16349;53.672;10.014;2024-01-07T09:52:08;-1.10;99.90
29363;DHT22;16349;53.672;10.014;2024-01-07T09:54:36;-0.90;99.90
29363;DHT22;16349;53.672;10.014;2024-01-07T09:57:04;-0.90;99.90
29363;DHT22;16349;53.672;10.014;2024-01-07T09:59:32;-0.90;99.90
29363;DHT22;16349;53.672;10.014;2024-01-07T10:02:00;-0.90;99.90
29363;DHT22;16349;53.672;10.014;2024-01-07T10:04:27;-0.80;99.90
29363;DHT22;16349;53.672;10.014;2024-01-07T10:06:54;-0.80;99.90
29363;DHT22;16349;53.672;10.014;2024-01-07T10:09:24;-0.80;99.90
29363;DHT22;16349;53.672;10.014;2024-01-07T10:11:52;-0.80;99.90
29363;DHT22;16349;53.672;10.014;2024-01-07T10:14:18;-0.80;99.90
29363;DHT22;16349;53.672;10.014;2024-01-07T10:16:48;-0.80;99.90
29363;DHT22;16349;53.672;10.014;2024-01-07T10:19:21;-0.80;99.90
29363;DHT22;16349;53.672;10.014;2024-01-07T10:21:59;-0.70;99.90
29363;DHT22;16349;53.672;10.014;2024-01-07T10:24:35;-0.70;99.90
29363;DHT22;16349;53.672;10.014;2024-01-07T10:27:03;-0.80;99.90
29363;DHT22;16349;53.672;10.014;2024-01-07T10:29:30;-0.80;99.90
29363;DHT22;16349;53.672;10.014;2024-01-07T10:31:58;-0.80;99.90
29363;DHT22;16349;53.672;10.014;2024-01-07T10:34:29;-0.80;99.90
29363;DHT22;16349;53.672;10.014;2024-01-07T10:36:58;-0.80;99.90
29363;DHT22;16349;53.672;10.014;2024-01-07T10:39:27;-0.80;99.90
29363;DHT22;16349;53.672;10.014;2024-01-07T10:41:55;-0.80;99.90
29363;DHT22;16349;53.672;10.014;2024-01-07T10:44:25;-0.80;99.90
29363;DHT22;16349;53.672;10.014;2024-01-07T10:46:54;-0.80;99.90
29363;DHT22;16349;53.672;10.014;2024-01-07T10:49:22;-0.70;99.90
29363;DHT22;16349;53.672;10.014;2024-01-07T10:52:02;-0.70;99.90
29363;DHT22;16349;53.672;10.014;2024-01-07T10:54:32;-0.70;99.90
29363;DHT22;16349;53.672;10.014;2024-01-07T10:57:04;-0.70;99.90
29363;DHT22;16349;53.672;10.014;2024-01-07T10:59:34;-0.60;99.90
29363;DHT22;16349;53.672;10.014;2024-01-07T11:02:03;-0.60;99.90
29363;DHT22;16349;53.672;10.014;2024-01-07T11:04:36;-0.50;99.90
29363;DHT22;16349;53.672;10.014;2024-01-07T11:07:14;-0.30;99.90
29363;DHT22;16349;53.672;10.014;2024-01-07T11:09:54;-0.40;99.90
29363;DHT22;16349;53.672;10.014;2024-01-07T11:12:22;-0.40;99.90
29363;DHT22;16349;53.672;10.014;2024-01-07T11:14:49;-0.40;99.90
29363;DHT22;16349;53.672;10.014;2024-01-07T11:17:40;-0.40;99.90
29363;DHT22;16349;53.672;10.014;2024-01-07T11:20:13;-0.40;99.90
29363;DHT22;16349;53.672;10.014;2024-01-07T11:22:40;-0.40;99.90
29363;DHT22;16349;53.672;10.014;2024-01-07T11:25:30;-0.40;99.90
29363;DHT22;16349;53.672;10.014;2024-01-07T11:27:57;-0.40;99.90
29363;DHT22;16349;53.672;10.014;2024-01-07T11:30:24;-0.40;99.90
29363;DHT22;16349;53.672;10.014;2024-01-07T11:32:57;-0.40;99.90
29363;DHT22;16349;53.672;10.014;2024-01-07T11:35:54;-0.40;99.90
29363;DHT22;16349;53.672;10.014;2024-01-07T11:38:22;-0.20;99.90
29363;DHT22;16349;53.672;10.014;2024-01-07T11:40:50;-0.30;99.90
29363;DHT22;16349;53.672;10.014;2024-01-07T11:43:18;-0.40;99.90
29363;DHT22;16349;53.672;10.014;2024-01-07T11:45:45;-0.40;99.90
29363;DHT22;16349;53.672;10.014;2024-01-07T11:48:13;-0.40;99.90
29363;DHT22;16349;53.672;10.014;2024-01-07T11:50:39;-0.40;99.90
29363;DHT22;16349;53.672;10.014;2024-01-07T11:53:06;-0.40;99.90
29363;DHT22;16349;53.672;10.014;2024-01-07T11:55:34;-0.40;99.90
29363;DHT22;16349;53.672;10.014;2024-01-07T11:58:03;-0.40;99.90
29363;DHT22;16349;53.672;10.014;2024-01-07T12:00:33;-0.40;99.90
29363;DHT22;16349;53.672;10.014;2024-01-07T12:03:00;-0.40;99.90
29363;DHT22;16349;53.672;10.014;2024-01-07T12:05:28;-0.40;99.90
29363;DHT22;16349;53.672;10.014;2024-01-07T12:07:55;-0.40;99.90
29363;DHT22;16349;53.672;10.014;2024-01-07T12:10:23;-0.40;99.90
29363;DHT22;16349;53.672;10.014;2024-01-07T12:12:50;-0.50;99.90
29363;DHT22;16349;53.672;10.014;2024-01-07T12:15:20;-0.50;99.90
29363;DHT22;16349;53.672;10.014;2024-01-07T12:17:57;-0.40;99.90
29363;DHT22;16349;53.672;10.014;2024-01-07T12:20:26;-0.50;99.90
29363;DHT22;16349;53.672;10.014;2024-01-07T12:22:56;-0.50;99.90
29363;DHT22;16349;53.672;10.014;2024-01-07T12:25:23;-0.50;99.90
29363;DHT22;16349;53.672;10.014;2024-01-07T12:27:51;-0.40;99.90
29363;DHT22;16349;53.672;10.014;2024-01-07T12:30:21;-0.40;99.90
29363;DHT22;16349;53.672;10.014;2024-01-07T12:32:50;-0.40;99.90
29363;DHT22;16349;53.672;10.014;2024-01-07T12:35:17;-0.50;99.90
29363;DHT22;16349;53.672;10.014;2024-01-07T12:37:44;-0.50;99.90
29363;DHT22;16349;53.672;10.014;2024-01-07T12:40:12;-0.60;99.90
29363;DHT22;16349;53.672;10.014;2024-01-07T12:42:39;-0.60;99.90
29363;DHT22;16349;53.672;10.014;2024-01-07T12:45:10;-0.60;99.90
29363;DHT22;16349;53.672;10.014;2024-01-07T12:47:40;-0.60;99.90
29363;DHT22;16349;53.672;10.014;2024-01-07T12:50:08;-0.60;99.90
29363;DHT22;16349;53.672;10.014;2024-01-07T12:52:36;-0.70;99.90
29363;DHT22;16349;53.672;10.014;2024-01-07T12:55:04;-0.70;99.90
29363;DHT22;16349;53.672;10.014;2024-01-07T12:57:31;-0.70;99.90
29363;DHT22;16349;53.672;10.014;2024-01-07T12:59:58;-0.70;99.90
29363;DHT22;16349;53.672;10.014;2024-01-07T13:02:25;-0.70;99.90
29363;DHT22;16349;53.672;10.014;2024-01-07T13:04:53;-0.80;99.90
29363;DHT22;16349;53.672;10.014;2024-01-07T13:07:20;-0.80;99.90
29363;DHT22;16349;53.672;10.014;2024-01-07T13:09:48;-0.80;99.90
29363;DHT22;16349;53.672;10.014;2024-01-07T13:12:15;-0.80;99.90
29363;DHT22;16349;53.672;10.014;2024-01-07T13:14:42;-0.90;99.90
29363;DHT22;16349;53.672;10.014;2024-01-07T13:17:09;-0.80;99.90
29363;DHT22;16349;53.672;10.014;2024-01-07T13:19:36;-0.90;99.90
29363;DHT22;16349;53.672;10.014;2024-01-07T13:22:05;-0.90;99.90
29363;DHT22;16349;53.672;10.014;2024-01-07T13:24:32;-1.00;99.90
29363;DHT22;16349;53.672;10.014;2024-01-07T13:26:58;-1.00;99.90
29363;DHT22;16349;53.672;10.014;2024-01-07T13:29:25;-1.00;99.90
29363;DHT22;16349;53.672;10.014;2024-01-07T13:31:52;-1.00;99.90
29363;DHT22;16349;53.672;10.014;2024-01-07T13:34:19;-1.00;99.90
29363;DHT22;16349;53.672;10.014;2024-01-07T13:36:46;-1.00;99.90
29363;DHT22;16349;53.672;10.014;2024-01-07T13:39:14;-1.10;99.90
29363;DHT22;16349;53.672;10.014;2024-01-07T13:41:42;-1.10;99.90
29363;DHT22;16349;53.672;10.014;2024-01-07T13:44:09;-1.20;99.90
29363;DHT22;16349;53.672;10.014;2024-01-07T13:46:44;-1.20;99.90
29363;DHT22;16349;53.672;10.014;2024-01-07T13:49:11;-1.30;99.90
29363;DHT22;16349;53.672;10.014;2024-01-07T13:51:38;-1.30;99.90
29363;DHT22;16349;53.672;10.014;2024-01-07T13:54:05;-1.30;99.90
29363;DHT22;16349;53.672;10.014;2024-01-07T13:56:34;-1.30;99.90
29363;DHT22;16349;53.672;10.014;2024-01-07T13:59:03;-1.40;99.90
29363;DHT22;16349;53.672;10.014;2024-01-07T14:01:30;-1.40;99.90
29363;DHT22;16349;53.672;10.014;2024-01-07T14:03:57;-1.40;99.90
29363;DHT22;16349;53.672;10.014;2024-01-07T14:06:24;-1.50;99.90
29363;DHT22;16349;53.672;10.014;2024-01-07T14:08:51;-1.50;99.90
29363;DHT22;16349;53.672;10.014;2024-01-07T14:11:19;-1.50;99.90
29363;DHT22;16349;53.672;10.014;2024-01-07T14:13:47;-1.60;99.90
29363;DHT22;16349;53.672;10.014;2024-01-07T14:16:14;-1.60;99.90
29363;DHT22;16349;53.672;10.014;2024-01-07T14:18:41;-1.60;99.90
29363;DHT22;16349;53.672;10.014;2024-01-07T14:21:08;-1.50;99.90
29363;DHT22;16349;53.672;10.014;2024-01-07T14:23:36;-1.60;99.90
29363;DHT22;16349;53.672;10.014;2024-01-07T14:26:03;-1.60;99.90
29363;DHT22;16349;53.672;10.014;2024-01-07T14:28:30;-1.60;99.90
29363;DHT22;16349;53.672;10.014;2024-01-07T14:30:58;-1.60;99.90
29363;DHT22;16349;53.672;10.014;2024-01-07T14:33:25;-1.60;99.90
29363;DHT22;16349;53.672;10.014;2024-01-07T14:35:52;-1.60;99.90
29363;DHT22;16349;53.672;10.014;2024-01-07T14:38:19;-1.60;99.90
29363;DHT22;16349;53.672;10.014;2024-01-07T14:40:47;-1.50;99.90
29363;DHT22;16349;53.672;10.014;2024-01-07T14:43:16;-1.50;99.90
29363;DHT22;16349;53.672;10.014;2024-01-07T14:45:43;-1.50;99.90
29363;DHT22;16349;53.672;10.014;2024-01-07T14:48:11;-1.60;99.90
29363;DHT22;16349;53.672;10.014;2024-01-07T14:50:39;-1.60;99.90
29363;DHT22;16349;53.672;10.014;2024-01-07T14:53:06;-1.70;99.90
29363;DHT22;16349;53.672;10.014;2024-01-07T14:55:33;-1.70;99.90
29363;DHT22;16349;53.672;10.014;2024-01-07T14:58:00;-1.60;99.90
29363;DHT22;16349;53.672;10.014;2024-01-07T15:00:27;-1.70;99.90
29363;DHT22;16349;53.672;10.014;2024-01-07T15:02:53;-1.70;99.90
29363;DHT22;16349;53.672;10.014;2024-01-07T15:05:22;-1.70;99.90
29363;DHT22;16349;53.672;10.014;2024-01-07T15:07:48;-1.70;99.90
29363;DHT22;16349;53.672;10.014;2024-01-07T15:10:16;-1.70;99.90
29363;DHT22;16349;53.672;10.014;2024-01-07T15:12:44;-1.60;99.90
29363;DHT22;16349;53.672;10.014;2024-01-07T15:15:11;-1.70;99.90
29363;DHT22;16349;53.672;10.014;2024-01-07T15:17:37;-1.70;99.90
29363;DHT22;16349;53.672;10.014;2024-01-07T15:20:05;-1.70;99.90